Time;durP1;ratioP1;P1;durP2;ratioP2;P2;SDS_P1;SDS_P2;PMS_P1;PMS_P2;Temp;Humidity;BMP_temperature;BMP_pressure;BME280_temperature;BME280_humidity;BME280_pressure;Samples;Min_cycle;Max_cycle;Signal;HPM_P1;HPM_P2
2023/10/02 00:01:10;;;;;;;16.17;6.27;;;14.00;99.90;;;;;;4162560;28;20257;-79
2023/10/02 00:03:13;;;;;;;16.97;7.00;;;14.00;99.90;;;;;;4162356;28;20218;-79
2023/10/02 00:05:40;;;;;;;14.60;6.63;;;14.00;99.90;;;;;;4157541;28;20575;-79
2023/10/02 00:07:37;;;;;;;15.03;6.43;;;14.00;99.90;;;;;;4159544;28;20207;-78
2023/10/02 00:09:41;;;;;;;15.07;6.47;;;13.90;99.90;;;;;;4162630;28;20234;-79
2023/10/02 00:11:52;;;;;;;18.00;6.50;;;13.90;99.90;;;;;;4166001;28;20210;-78
2023/10/02 00:14:18;;;;;;;16.00;6.87;;;13.90;99.90;;;;;;4172290;28;20202;-81
2023/10/02 00:16:18;;;;;;;15.53;6.70;;;13.90;99.90;;;;;;4173060;28;20248;-81
2023/10/02 00:18:23;;;;;;;16.00;6.50;;;13.80;99.90;;;;;;4168594;28;20224;-80
2023/10/02 00:20:26;;;;;;;15.37;6.83;;;13.80;99.90;;;;;;4162794;28;20238;-80
2023/10/02 00:22:38;;;;;;;12.97;6.10;;;13.80;99.90;;;;;;4159416;28;20585;-79
2023/10/02 00:24:45;;;;;;;15.43;6.87;;;13.80;99.90;;;;;;4156490;28;20201;-79
2023/10/02 00:26:46;;;;;;;14.10;6.23;;;13.80;99.90;;;;;;4152717;28;20238;-79
2023/10/02 00:28:48;;;;;;;16.00;6.60;;;13.80;99.90;;;;;;4156358;28;20588;-80
2023/10/02 00:30:53;;;;;;;15.10;5.97;;;13.70;99.90;;;;;;4157980;28;20213;-79
2023/10/02 00:32:55;;;;;;;13.57;5.93;;;13.70;99.90;;;;;;4150002;28;20219;-79
2023/10/02 00:35:00;;;;;;;15.30;6.70;;;13.70;99.90;;;;;;4162065;28;20266;-80
2023/10/02 00:37:12;;;;;;;13.20;6.70;;;13.70;99.90;;;;;;4162322;28;20206;-80
2023/10/02 00:39:30;;;;;;;14.77;6.47;;;13.70;99.90;;;;;;4155903;28;20227;-80
2023/10/02 00:41:32;;;;;;;18.30;7.30;;;13.70;99.90;;;;;;4156261;28;20259;-79
2023/10/02 00:43:33;;;;;;;16.23;6.63;;;13.70;99.90;;;;;;4156403;28;20615;-80
2023/10/02 00:45:38;;;;;;;14.83;7.20;;;13.70;99.90;;;;;;4156892;28;20208;-79
2023/10/02 00:47:41;;;;;;;15.37;7.33;;;13.60;99.90;;;;;;4161055;28;20205;-79
2023/10/02 00:50:06;;;;;;;16.20;7.40;;;13.70;99.90;;;;;;4160506;28;20246;-79
2023/10/02 00:52:08;;;;;;;17.60;7.37;;;13.60;99.90;;;;;;4156033;28;20260;-80
2023/10/02 00:56:28;;;;;;;14.87;6.73;;;13.60;99.90;;;;;;4160774;28;20216;-79
2023/10/02 00:58:29;;;;;;;14.17;6.47;;;13.60;99.90;;;;;;4157740;28;20239;-80
2023/10/02 01:00:35;;;;;;;16.83;6.20;;;13.50;99.90;;;;;;4154817;28;20229;-79
2023/10/02 01:02:39;;;;;;;14.67;6.63;;;13.50;99.90;;;;;;4156421;28;20653;-79
2023/10/02 01:04:42;;;;;;;15.60;6.97;;;13.50;99.90;;;;;;4162547;28;20209;-79
2023/10/02 01:09:14;;;;;;;18.60;6.83;;;13.50;99.90;;;;;;4150885;28;20249;-79
2023/10/02 01:11:20;;;;;;;17.40;7.43;;;13.50;99.90;;;;;;4160837;28;20213;-79
2023/10/02 01:13:24;;;;;;;16.87;6.63;;;13.50;99.90;;;;;;4156422;28;20268;-79
2023/10/02 01:15:27;;;;;;;13.93;6.17;;;13.50;99.90;;;;;;4157586;28;20201;-79
2023/10/02 01:17:29;;;;;;;13.97;6.07;;;13.40;99.90;;;;;;4161582;28;20214;-79
2023/10/02 01:19:52;;;;;;;14.97;6.70;;;13.40;99.90;;;;;;4162141;28;20835;-79
2023/10/02 01:21:56;;;;;;;13.63;6.27;;;13.40;99.90;;;;;;4155167;28;20317;-79
2023/10/02 01:24:10;;;;;;;19.73;7.50;;;13.40;99.90;;;;;;4159669;28;20209;-79
2023/10/02 01:26:18;;;;;;;18.30;7.50;;;13.40;99.90;;;;;;4156028;28;20297;-79
2023/10/02 01:28:25;;;;;;;14.03;6.87;;;13.40;99.90;;;;;;4158702;28;20256;-79
2023/10/02 01:30:27;;;;;;;14.40;7.03;;;13.40;99.90;;;;;;4160031;28;20237;-79
2023/10/02 01:32:29;;;;;;;16.07;6.30;;;13.30;99.90;;;;;;4159271;28;20708;-80
2023/10/02 01:34:35;;;;;;;18.40;7.17;;;13.30;99.90;;;;;;4160351;28;20246;-79
2023/10/02 01:36:41;;;;;;;15.97;6.97;;;13.30;99.90;;;;;;4155620;28;20209;-79
2023/10/02 01:38:44;;;;;;;17.70;6.73;;;13.30;99.90;;;;;;4158236;28;20206;-79
2023/10/02 01:40:54;;;;;;;15.73;6.37;;;13.30;99.90;;;;;;4158599;28;20214;-79
2023/10/02 01:43:11;;;;;;;19.17;6.80;;;13.30;99.90;;;;;;4156715;28;20226;-79
2023/10/02 01:45:13;;;;;;;17.73;6.67;;;13.30;99.90;;;;;;4158600;28;20210;-79
2023/10/02 01:47:17;;;;;;;16.23;6.63;;;13.30;99.90;;;;;;4154156;28;20213;-79
2023/10/02 01:49:26;;;;;;;14.40;6.20;;;13.30;99.90;;;;;;4158540;28;20444;-79
2023/10/02 01:51:29;;;;;;;12.67;5.53;;;13.30;99.90;;;;;;4156842;28;20218;-79
2023/10/02 01:53:32;;;;;;;16.60;7.40;;;13.20;99.90;;;;;;4162015;28;20233;-80
2023/10/02 01:55:35;;;;;;;18.80;7.20;;;13.20;99.90;;;;;;4155699;28;20285;-79
2023/10/02 01:57:39;;;;;;;17.17;7.60;;;13.30;99.90;;;;;;4157182;28;20208;-80
2023/10/02 01:59:45;;;;;;;15.13;7.37;;;13.30;99.90;;;;;;4155382;28;20357;-80
2023/10/02 02:01:52;;;;;;;15.93;6.77;;;13.30;99.90;;;;;;4159038;28;20237;-80
2023/10/02 02:03:55;;;;;;;18.03;6.97;;;13.20;99.90;;;;;;4157429;28;20208;-79
2023/10/02 02:05:56;;;;;;;19.70;7.47;;;13.20;99.90;;;;;;4159321;28;20212;-80
2023/10/02 02:08:21;;;;;;;17.53;7.30;;;13.30;99.90;;;;;;4162760;28;20212;-80
2023/10/02 02:10:22;;;;;;;15.83;6.53;;;13.20;99.90;;;;;;4163237;28;20600;-80
2023/10/02 02:12:24;;;;;;;18.57;7.33;;;13.20;99.90;;;;;;4158409;28;20212;-80
2023/10/02 02:14:27;;;;;;;18.90;7.03;;;13.30;99.90;;;;;;4156486;28;20219;-80
2023/10/02 02:16:33;;;;;;;16.30;6.80;;;13.20;99.90;;;;;;4158795;28;20266;-78
2023/10/02 02:18:34;;;;;;;19.10;8.17;;;13.20;99.90;;;;;;4158713;28;20202;-79
2023/10/02 02:20:44;;;;;;;17.47;7.27;;;13.20;99.90;;;;;;4159449;28;20226;-79
2023/10/02 02:22:46;;;;;;;17.03;7.23;;;13.20;99.90;;;;;;4172669;28;20220;-79
2023/10/02 02:24:48;;;;;;;17.67;7.67;;;13.20;99.90;;;;;;4160086;28;20213;-79
2023/10/02 02:26:57;;;;;;;13.97;6.83;;;13.20;99.90;;;;;;4160625;28;20261;-79
2023/10/02 02:29:01;;;;;;;16.80;7.47;;;13.20;99.90;;;;;;4160300;28;20677;-79
2023/10/02 02:31:04;;;;;;;15.03;6.83;;;13.20;99.90;;;;;;4163018;28;20189;-78
2023/10/02 02:33:07;;;;;;;20.40;7.90;;;13.20;99.90;;;;;;4166735;28;20224;-78
2023/10/02 02:35:14;;;;;;;15.30;7.00;;;13.10;99.90;;;;;;4157103;28;20212;-79
2023/10/02 02:37:28;;;;;;;15.63;6.87;;;13.10;99.90;;;;;;4164947;28;20895;-79
2023/10/02 02:39:31;;;;;;;16.43;7.03;;;13.10;99.90;;;;;;4161280;28;20230;-79
2023/10/02 02:41:32;;;;;;;15.03;6.63;;;13.10;99.90;;;;;;4166939;28;20245;-79
2023/10/02 02:43:34;;;;;;;19.03;7.63;;;13.10;99.90;;;;;;4163839;28;20680;-78
2023/10/02 02:45:36;;;;;;;15.20;6.80;;;13.10;99.90;;;;;;4164961;28;20217;-79
2023/10/02 02:47:51;;;;;;;14.80;6.63;;;13.20;99.90;;;;;;4161393;28;20220;-77
2023/10/02 02:49:58;;;;;;;14.80;6.43;;;13.20;99.90;;;;;;4160675;28;20230;-78
2023/10/02 02:52:00;;;;;;;18.07;6.83;;;13.10;99.90;;;;;;4163516;28;20230;-77
2023/10/02 02:54:05;;;;;;;15.67;6.87;;;13.20;99.90;;;;;;4162769;28;20269;-78
2023/10/02 02:56:18;;;;;;;17.37;6.27;;;13.20;99.90;;;;;;4154283;28;20221;-78
2023/10/02 02:58:20;;;;;;;15.20;6.20;;;13.20;99.90;;;;;;4156666;28;20209;-78
2023/10/02 03:00:29;;;;;;;14.37;6.50;;;13.30;99.90;;;;;;4152233;28;20306;-78
2023/10/02 03:02:31;;;;;;;17.13;7.03;;;13.20;99.90;;;;;;4159010;28;20214;-79
2023/10/02 03:04:39;;;;;;;19.73;7.40;;;13.20;99.90;;;;;;4154327;28;20234;-78
2023/10/02 03:06:42;;;;;;;15.47;6.50;;;13.30;99.90;;;;;;4160870;28;20216;-77
2023/10/02 03:08:44;;;;;;;17.77;6.60;;;13.30;99.90;;;;;;4156598;28;20272;-77
2023/10/02 03:10:57;;;;;;;15.37;6.80;;;13.30;99.90;;;;;;4160422;28;20203;-77
2023/10/02 03:13:00;;;;;;;15.83;6.57;;;13.30;99.90;;;;;;4155194;28;20214;-78
2023/10/02 03:15:05;;;;;;;15.43;6.27;;;13.40;99.90;;;;;;4157034;28;20212;-77
2023/10/02 03:19:23;;;;;;;15.67;6.03;;;13.40;99.90;;;;;;4160659;28;20262;-78
2023/10/02 03:21:26;;;;;;;16.27;7.00;;;13.40;99.90;;;;;;4158112;28;20209;-77
2023/10/02 03:23:33;;;;;;;18.47;7.40;;;13.40;99.90;;;;;;4161073;28;20228;-78
2023/10/02 03:25:41;;;;;;;17.27;7.13;;;13.40;99.90;;;;;;4161544;28;20904;-78
2023/10/02 03:27:44;;;;;;;17.77;7.23;;;13.40;99.90;;;;;;4163019;28;20806;-78
2023/10/02 03:29:45;;;;;;;14.73;6.60;;;13.40;99.90;;;;;;4162910;28;20290;-78
2023/10/02 03:31:49;;;;;;;16.40;7.30;;;13.40;99.90;;;;;;4165047;28;20647;-77
2023/10/02 03:33:50;;;;;;;15.23;6.57;;;13.50;99.90;;;;;;4163427;28;20242;-78
2023/10/02 03:36:07;;;;;;;14.20;6.70;;;13.40;99.90;;;;;;4165071;28;20203;-78
2023/10/02 03:38:13;;;;;;;14.63;6.50;;;13.50;99.90;;;;;;4159616;28;20206;-78
2023/10/02 03:40:20;;;;;;;14.73;6.87;;;13.50;99.90;;;;;;4163375;28;20235;-78
2023/10/02 03:42:22;;;;;;;14.70;6.20;;;13.50;99.90;;;;;;4163549;28;20647;-78
2023/10/02 03:44:24;;;;;;;14.87;6.37;;;13.50;99.90;;;;;;4162422;28;20205;-78
2023/10/02 03:46:35;;;;;;;14.03;6.90;;;13.50;99.90;;;;;;4162477;28;20199;-78
2023/10/02 03:48:40;;;;;;;14.07;6.10;;;13.50;99.90;;;;;;4160487;28;20237;-78
2023/10/02 03:50:44;;;;;;;14.23;6.27;;;13.50;99.90;;;;;;4156330;28;20227;-78
2023/10/02 03:53:10;;;;;;;16.90;6.30;;;13.60;99.90;;;;;;4162935;28;20686;-78
2023/10/02 03:55:17;;;;;;;15.23;6.07;;;13.50;99.90;;;;;;4158940;28;20218;-78
2023/10/02 03:59:51;;;;;;;17.53;6.23;;;13.50;99.90;;;;;;4158430;28;20284;-78
2023/10/02 04:02:24;;;;;;;15.83;5.83;;;13.50;99.90;;;;;;4161919;28;20210;-77
2023/10/02 04:04:21;;;;;;;14.77;6.53;;;13.50;99.90;;;;;;4159673;28;20215;-78
2023/10/02 04:06:33;;;;;;;14.17;5.90;;;13.60;99.90;;;;;;4162407;28;20730;-78
2023/10/02 04:08:37;;;;;;;14.43;6.17;;;13.60;99.90;;;;;;4157387;28;20673;-80
2023/10/02 04:10:55;;;;;;;14.70;6.03;;;13.60;99.90;;;;;;4153948;28;20247;-80
2023/10/02 04:13:00;;;;;;;18.80;6.17;;;13.60;99.90;;;;;;4157346;28;20738;-81
2023/10/02 04:15:11;;;;;;;13.90;5.83;;;13.60;99.90;;;;;;4152374;28;20215;-79
2023/10/02 04:17:14;;;;;;;16.27;6.23;;;13.70;99.90;;;;;;4158159;28;20717;-81
2023/10/02 04:19:18;;;;;;;12.70;5.90;;;13.70;99.90;;;;;;4156810;28;20608;-78
2023/10/02 04:21:22;;;;;;;14.83;5.37;;;13.70;99.90;;;;;;4161809;28;20221;-77
2023/10/02 04:23:25;;;;;;;13.40;5.87;;;13.70;99.90;;;;;;4162266;28;20206;-78
2023/10/02 04:25:35;;;;;;;18.57;6.70;;;13.70;99.90;;;;;;4167478;28;20218;-79
2023/10/02 04:32:18;;;;;;;11.97;5.60;;;13.70;99.90;;;;;;4162869;28;20583;-78
2023/10/02 04:34:24;;;;;;;16.63;6.30;;;13.70;99.90;;;;;;4159780;28;20214;-78
2023/10/02 04:36:34;;;;;;;12.97;5.53;;;13.70;99.90;;;;;;4161358;28;20206;-78
2023/10/02 04:38:49;;;;;;;17.83;6.30;;;13.70;99.90;;;;;;4154666;28;20220;-78
2023/10/02 04:40:51;;;;;;;12.63;5.53;;;13.70;99.90;;;;;;4157115;28;20198;-78
2023/10/02 04:43:19;;;;;;;14.93;5.70;;;13.80;99.90;;;;;;4173079;28;20282;-78
2023/10/02 04:45:21;;;;;;;15.07;6.00;;;13.80;99.90;;;;;;4157409;28;20239;-80
2023/10/02 04:47:26;;;;;;;15.87;6.00;;;13.80;99.90;;;;;;4159224;28;20213;-78
2023/10/02 04:49:28;;;;;;;14.50;6.07;;;13.80;99.90;;;;;;4161003;28;20309;-78
2023/10/02 04:51:29;;;;;;;14.80;5.80;;;13.80;99.90;;;;;;4162480;28;20702;-78
2023/10/02 04:53:34;;;;;;;13.03;6.07;;;13.80;99.90;;;;;;4162659;28;20193;-78
2023/10/02 04:55:42;;;;;;;14.63;5.70;;;13.90;99.90;;;;;;4158336;28;20197;-78
2023/10/02 04:57:50;;;;;;;14.53;6.13;;;13.90;99.90;;;;;;4158426;28;20224;-78
2023/10/02 04:59:56;;;;;;;13.73;6.13;;;13.90;99.90;;;;;;4160637;28;20219;-78
2023/10/02 05:02:17;;;;;;;14.73;6.30;;;13.90;99.90;;;;;;4161063;28;20211;-78
2023/10/02 05:04:18;;;;;;;15.13;5.80;;;13.90;99.90;;;;;;4161900;28;20225;-78
2023/10/02 05:06:43;;;;;;;13.73;6.10;;;14.00;99.90;;;;;;4160021;28;20274;-78
2023/10/02 05:11:06;;;;;;;11.17;4.87;;;14.00;99.90;;;;;;4169600;28;20602;-78
2023/10/02 05:13:09;;;;;;;13.13;5.63;;;14.00;99.90;;;;;;4164360;28;20265;-78
2023/10/02 05:15:20;;;;;;;14.17;5.83;;;14.10;99.90;;;;;;4165536;28;20218;-79
2023/10/02 05:17:41;;;;;;;11.87;5.37;;;14.10;99.90;;;;;;4162350;28;20195;-79
2023/10/02 05:20:01;;;;;;;13.67;5.33;;;14.10;99.90;;;;;;4162363;28;20240;-79
2023/10/02 05:22:04;;;;;;;17.67;5.77;;;14.10;99.90;;;;;;4161810;28;20244;-79
2023/10/02 05:24:06;;;;;;;14.37;5.50;;;14.00;99.90;;;;;;4160207;28;20291;-79
2023/10/02 05:26:29;;;;;;;14.77;6.23;;;14.20;99.90;;;;;;4160341;28;20200;-79
2023/10/02 05:28:42;;;;;;;12.67;5.43;;;14.20;99.90;;;;;;4161833;28;20214;-79
2023/10/02 05:30:46;;;;;;;16.60;6.00;;;14.10;99.90;;;;;;4158517;28;20288;-79
2023/10/02 05:32:51;;;;;;;14.67;5.90;;;14.10;99.90;;;;;;4160891;28;20236;-78
2023/10/02 05:35:06;;;;;;;14.90;5.50;;;14.10;99.90;;;;;;4159416;28;20211;-79
2023/10/02 05:37:12;;;;;;;11.97;5.07;;;14.10;99.90;;;;;;4159498;28;20697;-79
2023/10/02 05:39:31;;;;;;;12.27;5.40;;;14.10;99.90;;;;;;4159694;28;20588;-80
2023/10/02 05:41:41;;;;;;;10.70;4.50;;;14.10;99.90;;;;;;4162184;28;20206;-80
2023/10/02 05:43:55;;;;;;;12.97;5.17;;;14.10;99.90;;;;;;4157229;28;20623;-79
2023/10/02 05:46:00;;;;;;;12.77;5.37;;;14.10;99.90;;;;;;4157459;28;20831;-80
2023/10/02 05:48:01;;;;;;;12.07;5.20;;;14.10;99.90;;;;;;4161403;28;20322;-79
2023/10/02 05:50:04;;;;;;;11.10;5.63;;;14.10;99.90;;;;;;4157472;28;20262;-79
2023/10/02 05:52:07;;;;;;;20.63;5.53;;;14.10;99.90;;;;;;4156610;28;20258;-80
2023/10/02 05:54:10;;;;;;;11.57;5.03;;;14.10;99.90;;;;;;4157257;28;20492;-79
2023/10/02 05:56:13;;;;;;;15.03;5.43;;;14.10;99.90;;;;;;4160527;28;20733;-79
2023/10/02 05:58:20;;;;;;;12.63;5.33;;;14.10;99.90;;;;;;4163035;28;20213;-81
2023/10/02 06:00:22;;;;;;;15.63;5.60;;;14.10;99.90;;;;;;4158158;28;20226;-80
2023/10/02 06:02:26;;;;;;;11.20;5.30;;;14.10;99.90;;;;;;4164835;28;20207;-79
2023/10/02 06:04:33;;;;;;;13.77;5.70;;;14.10;99.90;;;;;;4161817;28;20293;-79
2023/10/02 06:06:37;;;;;;;12.17;4.87;;;14.10;99.90;;;;;;4162756;28;20257;-79
2023/10/02 06:08:40;;;;;;;13.30;5.13;;;14.10;99.90;;;;;;4159749;28;20235;-79
2023/10/02 06:10:44;;;;;;;13.13;5.47;;;14.10;99.90;;;;;;4161726;28;20249;-79
2023/10/02 06:12:47;;;;;;;14.10;5.77;;;14.10;99.90;;;;;;4162453;28;20206;-78
2023/10/02 06:14:49;;;;;;;12.43;5.17;;;14.20;99.90;;;;;;4157609;28;20207;-78
2023/10/02 06:16:52;;;;;;;12.07;5.27;;;14.20;99.90;;;;;;4161167;28;20666;-78
2023/10/02 06:19:06;;;;;;;13.70;4.97;;;14.20;99.90;;;;;;4167448;28;20796;-78
2023/10/02 06:21:13;;;;;;;10.73;5.10;;;14.20;99.90;;;;;;4162848;28;20212;-79
2023/10/02 06:23:22;;;;;;;14.00;4.90;;;14.20;99.90;;;;;;4160110;28;20203;-80
2023/10/02 06:25:24;;;;;;;12.17;5.07;;;14.30;99.90;;;;;;4163013;28;20207;-77
2023/10/02 06:27:26;;;;;;;12.40;5.47;;;14.30;99.90;;;;;;4157551;28;20206;-78
2023/10/02 06:29:29;;;;;;;15.03;5.23;;;14.30;99.90;;;;;;4160215;28;20791;-78
2023/10/02 06:31:41;;;;;;;13.10;5.33;;;14.30;99.90;;;;;;4155673;28;20203;-78
2023/10/02 06:33:44;;;;;;;14.03;5.27;;;14.30;99.90;;;;;;4158403;28;20212;-78
2023/10/02 06:35:56;;;;;;;11.03;5.07;;;14.30;99.90;;;;;;4159128;28;20223;-78
2023/10/02 06:38:15;;;;;;;13.30;5.33;;;14.30;99.90;;;;;;4162252;28;20285;-78
2023/10/02 06:40:23;;;;;;;15.17;5.27;;;14.40;99.90;;;;;;4157974;28;20223;-80
2023/10/02 06:42:25;;;;;;;12.40;5.47;;;14.40;99.90;;;;;;4158888;28;20202;-80
2023/10/02 06:44:32;;;;;;;12.27;5.40;;;14.40;99.90;;;;;;4160940;28;20641;-77
2023/10/02 06:46:35;;;;;;;14.43;5.47;;;14.50;99.90;;;;;;4154895;28;20253;-76
2023/10/02 06:48:39;;;;;;;9.23;4.47;;;14.40;99.90;;;;;;4164624;28;20191;-77
2023/10/02 06:50:41;;;;;;;13.67;5.13;;;14.50;99.90;;;;;;4157959;28;20223;-77
2023/10/02 06:52:44;;;;;;;15.07;5.47;;;14.50;99.90;;;;;;4158577;28;20294;-79
2023/10/02 06:54:48;;;;;;;11.13;4.83;;;14.60;99.90;;;;;;4159478;28;20687;-79
2023/10/02 06:56:49;;;;;;;12.00;4.87;;;14.60;99.90;;;;;;4159463;28;20258;-77
2023/10/02 06:58:54;;;;;;;11.93;4.93;;;14.70;99.90;;;;;;4160461;28;20207;-78
2023/10/02 07:01:01;;;;;;;11.30;4.83;;;14.70;99.90;;;;;;4160408;28;20239;-79
2023/10/02 07:03:04;;;;;;;14.20;5.00;;;14.80;99.90;;;;;;4159620;28;20257;-77
2023/10/02 07:05:10;;;;;;;11.80;5.37;;;14.80;99.90;;;;;;4164430;28;20211;-77
2023/10/02 07:07:20;;;;;;;12.47;5.43;;;14.80;99.90;;;;;;4161010;28;20219;-77
2023/10/02 07:09:24;;;;;;;10.73;4.67;;;14.80;99.90;;;;;;4160752;28;20298;-76
2023/10/02 07:11:26;;;;;;;10.63;5.10;;;14.90;99.90;;;;;;4156263;28;20223;-76
2023/10/02 07:13:31;;;;;;;12.50;5.57;;;14.90;99.90;;;;;;4155628;28;20207;-77
2023/10/02 07:15:34;;;;;;;10.53;5.23;;;14.90;99.90;;;;;;4158663;28;20210;-75
2023/10/02 07:17:47;;;;;;;14.03;4.90;;;14.90;99.90;;;;;;4157823;28;20211;-77
2023/10/02 07:19:51;;;;;;;13.83;5.50;;;15.00;99.90;;;;;;4173136;28;20328;-77
2023/10/02 07:21:53;;;;;;;12.97;5.47;;;15.10;99.90;;;;;;4153999;28;20261;-77
2023/10/02 07:23:55;;;;;;;10.83;5.27;;;15.10;99.90;;;;;;4152377;28;20214;-76
2023/10/02 07:25:58;;;;;;;12.53;5.90;;;15.10;99.90;;;;;;4157926;28;20226;-75
2023/10/02 07:28:03;;;;;;;11.00;4.97;;;15.20;99.90;;;;;;4159292;28;20210;-75
2023/10/02 07:30:09;;;;;;;10.93;5.37;;;15.20;99.90;;;;;;4156366;28;20612;-78
2023/10/02 07:32:13;;;;;;;11.57;4.70;;;15.30;99.90;;;;;;4158033;28;20681;-75
2023/10/02 07:34:15;;;;;;;11.47;5.33;;;15.30;99.90;;;;;;4163108;28;20207;-75
2023/10/02 07:36:17;;;;;;;11.13;4.60;;;15.40;99.90;;;;;;4159757;28;20230;-77
2023/10/02 07:38:20;;;;;;;10.30;4.93;;;15.40;99.90;;;;;;4161132;28;20215;-77
2023/10/02 07:40:22;;;;;;;12.10;5.37;;;15.50;99.90;;;;;;4158829;28;20645;-77
2023/10/02 07:42:28;;;;;;;15.27;4.83;;;15.50;99.90;;;;;;4156974;28;20223;-76
2023/10/02 07:44:36;;;;;;;10.73;4.90;;;15.60;99.90;;;;;;4155107;28;20365;-77
2023/10/02 07:46:40;;;;;;;12.97;5.60;;;15.70;99.90;;;;;;4162520;28;20199;-77
2023/10/02 07:48:55;;;;;;;10.70;5.23;;;15.70;99.90;;;;;;4157096;28;20234;-78
2023/10/02 07:50:59;;;;;;;10.03;4.73;;;15.80;99.90;;;;;;4166172;28;20257;-79
2023/10/02 07:53:04;;;;;;;11.27;5.23;;;15.80;99.90;;;;;;4168485;28;20643;-79
2023/10/02 07:55:10;;;;;;;13.27;5.37;;;15.90;99.90;;;;;;4163981;28;20226;-78
2023/10/02 07:57:13;;;;;;;13.53;5.97;;;16.00;99.90;;;;;;4153333;28;20294;-74
2023/10/02 07:59:18;;;;;;;16.27;5.90;;;16.00;99.90;;;;;;4160566;28;20223;-78
2023/10/02 08:01:25;;;;;;;12.33;5.57;;;16.10;99.90;;;;;;4153139;28;20209;-77
2023/10/02 08:03:34;;;;;;;9.97;4.67;;;16.20;99.90;;;;;;4158121;28;20209;-77
2023/10/02 08:05:36;;;;;;;13.03;5.23;;;16.30;99.90;;;;;;4157672;28;20204;-75
2023/10/02 08:07:38;;;;;;;12.53;4.73;;;16.40;99.90;;;;;;4160426;28;20215;-77
2023/10/02 08:09:40;;;;;;;13.53;5.60;;;16.60;99.90;;;;;;4158330;28;20229;-79
2023/10/02 08:11:45;;;;;;;10.87;4.87;;;16.60;99.90;;;;;;4160937;28;20232;-77
2023/10/02 08:13:49;;;;;;;9.67;4.63;;;16.70;99.90;;;;;;4159240;28;20209;-77
2023/10/02 08:15:52;;;;;;;13.17;5.27;;;16.80;99.90;;;;;;4154249;28;20205;-79
2023/10/02 08:20:19;;;;;;;12.03;5.23;;;17.10;99.90;;;;;;4158526;28;20265;-78
2023/10/02 08:22:24;;;;;;;12.37;4.57;;;17.20;99.90;;;;;;4160255;28;20272;-79
2023/10/02 08:24:26;;;;;;;12.60;4.83;;;17.30;99.90;;;;;;4159201;28;20217;-78
2023/10/02 08:26:27;;;;;;;12.27;5.10;;;17.40;99.90;;;;;;4161902;28;20211;-80
2023/10/02 08:28:37;;;;;;;12.73;5.43;;;17.50;99.90;;;;;;4160969;28;20209;-80
2023/10/02 08:30:42;;;;;;;12.03;5.00;;;17.50;99.90;;;;;;4163525;28;20292;-79
2023/10/02 08:32:48;;;;;;;12.43;4.83;;;17.60;99.90;;;;;;4166753;28;20217;-79
2023/10/02 08:34:52;;;;;;;12.60;5.20;;;17.70;99.90;;;;;;4162071;28;20195;-79
2023/10/02 08:37:07;;;;;;;9.13;4.60;;;17.80;99.90;;;;;;4158628;28;20203;-79
2023/10/02 08:39:09;;;;;;;14.90;5.67;;;17.90;99.90;;;;;;4163617;28;20231;-79
2023/10/02 08:41:12;;;;;;;13.00;5.40;;;18.00;99.90;;;;;;4172145;28;20278;-80
2023/10/02 08:43:22;;;;;;;10.73;5.47;;;18.10;99.90;;;;;;4165770;28;20276;-80
2023/10/02 08:45:25;;;;;;;9.30;4.73;;;18.20;99.90;;;;;;4163347;28;20214;-79
2023/10/02 08:47:28;;;;;;;15.87;6.13;;;18.30;99.90;;;;;;4158862;28;20201;-79
2023/10/02 08:49:31;;;;;;;11.73;5.50;;;18.40;99.90;;;;;;4167138;28;20255;-79
2023/10/02 08:51:38;;;;;;;13.27;5.37;;;18.50;99.90;;;;;;4161767;28;20229;-78
2023/10/02 08:53:45;;;;;;;11.50;5.57;;;18.60;99.90;;;;;;4157717;28;20216;-79
2023/10/02 08:55:56;;;;;;;11.83;5.43;;;18.60;99.90;;;;;;4161291;28;20210;-78
2023/10/02 08:58:15;;;;;;;11.37;4.90;;;18.70;99.90;;;;;;4161865;28;20788;-79
2023/10/02 09:00:20;;;;;;;12.43;5.20;;;18.80;99.90;;;;;;4162367;28;20715;-80
2023/10/02 09:02:26;;;;;;;14.43;5.37;;;18.90;99.90;;;;;;4163949;28;20199;-81
2023/10/02 09:04:32;;;;;;;9.20;4.40;;;18.90;99.90;;;;;;4157630;28;20276;-79
2023/10/02 09:06:41;;;;;;;9.93;4.70;;;19.00;99.90;;;;;;4164349;28;20203;-80
2023/10/02 09:09:13;;;;;;;22.43;5.47;;;19.00;99.90;;;;;;4165534;28;20888;-80
2023/10/02 09:11:06;;;;;;;10.20;5.03;;;19.10;99.90;;;;;;4156101;28;20219;-80
2023/10/02 09:13:13;;;;;;;10.90;5.10;;;19.20;99.90;;;;;;4157093;28;20298;-78
2023/10/02 09:15:27;;;;;;;11.43;4.90;;;19.20;99.90;;;;;;4162994;28;20210;-80
2023/10/02 09:17:44;;;;;;;11.93;5.20;;;19.30;99.90;;;;;;4158180;28;20219;-78
2023/10/02 09:19:53;;;;;;;10.47;5.03;;;19.40;99.90;;;;;;4162529;28;20691;-83
2023/10/02 09:22:06;;;;;;;16.57;4.77;;;19.40;99.90;;;;;;4160374;28;20203;-80
2023/10/02 09:24:23;;;;;;;10.43;4.97;;;19.50;99.90;;;;;;4162631;28;20211;-80
2023/10/02 09:26:30;;;;;;;13.17;5.07;;;19.60;99.90;;;;;;4164341;28;20255;-82
2023/10/02 09:28:41;;;;;;;12.03;5.20;;;19.60;99.90;;;;;;4167217;28;20203;-82
2023/10/02 09:30:43;;;;;;;12.30;5.40;;;19.70;99.90;;;;;;4165522;28;20215;-82
2023/10/02 09:32:47;;;;;;;13.30;5.43;;;19.80;99.90;;;;;;4167447;28;20211;-77
2023/10/02 09:35:10;;;;;;;14.43;4.70;;;19.90;99.90;;;;;;4165340;28;20230;-81
2023/10/02 09:37:15;;;;;;;13.47;5.40;;;20.00;99.90;;;;;;4168838;28;20211;-79
2023/10/02 09:39:36;;;;;;;13.50;5.13;;;20.20;99.90;;;;;;4164226;28;20691;-82
2023/10/02 09:41:38;;;;;;;14.37;6.07;;;20.30;99.90;;;;;;4161218;28;20224;-81
2023/10/02 09:43:41;;;;;;;16.60;5.77;;;20.40;99.90;;;;;;4163252;28;20227;-82
2023/10/02 09:45:46;;;;;;;12.70;5.80;;;20.60;99.90;;;;;;4164553;28;20560;-81
2023/10/02 09:47:48;;;;;;;14.63;6.03;;;20.70;99.90;;;;;;4164349;28;20573;-81
2023/10/02 09:50:10;;;;;;;16.33;6.10;;;20.80;99.90;;;;;;4165733;28;20219;-81
2023/10/02 09:52:23;;;;;;;15.90;6.77;;;20.90;99.90;;;;;;4162934;28;20234;-83
2023/10/02 09:54:34;;;;;;;16.03;6.37;;;21.10;99.90;;;;;;4161798;28;20214;-84
2023/10/02 09:57:05;;;;;;;14.73;7.17;;;21.30;99.90;;;;;;4161497;28;20286;-83
2023/10/02 09:59:16;;;;;;;16.80;7.07;;;21.30;99.90;;;;;;4169235;28;20231;-85
2023/10/02 10:05:01;;;;;;;14.03;6.20;;;21.60;99.90;;;;;;4056179;29;20233;-81
2023/10/02 10:07:35;;;;;;;15.87;6.97;;;21.50;99.90;;;;;;4130483;28;20798;-82
2023/10/02 10:12:21;;;;;;;15.10;7.37;;;21.70;99.90;;;;;;4162615;28;20229;-80
2023/10/02 10:14:35;;;;;;;18.47;7.23;;;21.80;99.90;;;;;;4158445;28;20221;-79
2023/10/02 10:16:39;;;;;;;19.37;7.60;;;21.90;99.90;;;;;;4167656;28;20210;-78
2023/10/02 10:19:26;;;;;;;16.63;7.30;;;22.00;99.90;;;;;;4164546;28;20216;-82
2023/10/02 10:21:55;;;;;;;16.67;7.70;;;22.10;99.90;;;;;;4163372;28;20199;-78
2023/10/02 10:24:29;;;;;;;18.50;7.80;;;22.20;99.90;;;;;;4166369;28;20199;-77
2023/10/02 10:26:42;;;;;;;15.20;7.23;;;22.30;99.90;;;;;;4158782;28;20282;-79
2023/10/02 10:28:51;;;;;;;16.00;7.10;;;22.40;99.90;;;;;;4160493;28;20222;-79
2023/10/02 10:30:56;;;;;;;15.27;7.77;;;22.50;99.90;;;;;;4160536;28;20222;-83
2023/10/02 10:33:40;;;;;;;15.30;7.70;;;22.70;99.90;;;;;;4156392;28;20238;-81
2023/10/02 10:35:48;;;;;;;16.23;7.83;;;22.80;99.90;;;;;;4157287;28;20198;-79
2023/10/02 10:37:49;;;;;;;15.17;7.80;;;22.90;99.90;;;;;;4159221;28;20210;-80
2023/10/02 10:39:57;;;;;;;17.07;7.67;;;23.00;99.90;;;;;;4159151;28;20251;-80
2023/10/02 10:42:02;;;;;;;15.83;7.13;;;23.00;99.90;;;;;;4160089;28;20217;-83
2023/10/02 10:44:13;;;;;;;16.80;7.70;;;23.10;99.90;;;;;;4157857;28;20203;-84
2023/10/02 10:46:19;;;;;;;16.17;7.13;;;23.20;99.90;;;;;;4165152;28;20316;-82
2023/10/02 10:48:24;;;;;;;14.97;7.20;;;23.40;99.90;;;;;;4164091;28;20202;-82
2023/10/02 10:50:29;;;;;;;14.80;7.07;;;23.40;99.90;;;;;;4161829;28;20222;-81
2023/10/02 10:52:39;;;;;;;17.00;7.13;;;23.50;99.90;;;;;;4161159;28;20223;-86
2023/10/02 10:54:41;;;;;;;15.93;7.50;;;23.60;98.80;;;;;;4163144;28;20230;-82
2023/10/02 10:56:44;;;;;;;14.33;7.13;;;23.70;97.90;;;;;;4161401;28;20627;-81
2023/10/02 10:58:51;;;;;;;16.53;7.60;;;23.80;99.00;;;;;;4160548;28;20226;-80
2023/10/02 11:00:54;;;;;;;14.60;6.90;;;23.90;97.10;;;;;;4175154;28;20203;-81
2023/10/02 11:02:57;;;;;;;13.43;6.77;;;24.00;94.60;;;;;;4171959;28;20330;-82
2023/10/02 11:05:03;;;;;;;17.13;6.57;;;24.10;94.30;;;;;;4171511;28;20191;-83
2023/10/02 11:07:19;;;;;;;14.93;7.33;;;24.20;92.50;;;;;;4170492;28;20211;-81
2023/10/02 11:09:25;;;;;;;14.17;7.37;;;24.20;89.10;;;;;;4172038;28;20531;-83
2023/10/02 11:11:30;;;;;;;18.13;7.63;;;24.30;87.90;;;;;;4169424;28;20980;-86
2023/10/02 11:13:51;;;;;;;13.70;6.70;;;24.30;83.50;;;;;;4165704;28;20265;-85
2023/10/02 11:16:08;;;;;;;15.17;7.17;;;24.50;81.80;;;;;;4168285;28;20206;-83
2023/10/02 11:18:18;;;;;;;14.37;7.10;;;24.60;79.50;;;;;;4162869;28;20225;-83
2023/10/02 11:20:31;;;;;;;15.93;7.43;;;24.80;79.30;;;;;;4164614;28;20223;-83